sensor_id;sensor_type;location;lat;lon;timestamp;pressure;altitude;pressure_sealevel;temperature;humidity
48216;BME280;34005;48.844;10.098;2023-02-18T00:00:28;97515.16;;;11.70;69.78
48216;BME280;34005;48.844;10.098;2023-02-18T00:02:55;97513.34;;;11.71;69.58
48216;BME280;34005;48.844;10.098;2023-02-18T00:05:23;97517.63;;;11.72;69.40
48216;BME280;34005;48.844;10.098;2023-02-18T00:07:52;97522.84;;;11.72;69.55
48216;BME280;34005;48.844;10.098;2023-02-18T00:10:20;97518.44;;;11.72;69.51
48216;BME280;34005;48.844;10.098;2023-02-18T00:12:47;97521.84;;;11.73;69.27
48216;BME280;34005;48.844;10.098;2023-02-18T00:15:15;97507.16;;;11.72;69.47
48216;BME280;34005;48.844;10.098;2023-02-18T00:17:43;97502.75;;;11.72;69.36
48216;BME280;34005;48.844;10.098;2023-02-18T00:20:11;97512.38;;;11.72;69.31
48216;BME280;34005;48.844;10.098;2023-02-18T00:22:39;97509.59;;;11.73;69.22
48216;BME280;34005;48.844;10.098;2023-02-18T00:25:08;97503.56;;;11.73;69.27
48216;BME280;34005;48.844;10.098;2023-02-18T00:27:36;97500.94;;;11.73;69.27
48216;BME280;34005;48.844;10.098;2023-02-18T00:30:04;97520.53;;;11.77;69.25
48216;BME280;34005;48.844;10.098;2023-02-18T00:32:33;97500.44;;;11.78;68.92
48216;BME280;34005;48.844;10.098;2023-02-18T00:35:01;97507.47;;;11.77;68.95
48216;BME280;34005;48.844;10.098;2023-02-18T00:37:29;97494.41;;;11.77;69.06
48216;BME280;34005;48.844;10.098;2023-02-18T00:39:59;97496.22;;;11.77;68.87
48216;BME280;34005;48.844;10.098;2023-02-18T00:42:28;97498.16;;;11.74;68.96
48216;BME280;34005;48.844;10.098;2023-02-18T00:44:55;97497.31;;;11.74;69.05
48216;BME280;34005;48.844;10.098;2023-02-18T00:47:23;97497.31;;;11.74;68.92
48216;BME280;34005;48.844;10.098;2023-02-18T00:49:51;97494.72;;;11.74;68.77
48216;BME280;34005;48.844;10.098;2023-02-18T00:52:18;97491.13;;;11.75;68.70
48216;BME280;34005;48.844;10.098;2023-02-18T00:54:46;97510.09;;;11.77;68.52
48216;BME280;34005;48.844;10.098;2023-02-18T00:57:13;97505.66;;;11.78;68.30
48216;BME280;34005;48.844;10.098;2023-02-18T00:59:42;97488.19;;;11.78;68.38
48216;BME280;34005;48.844;10.098;2023-02-18T01:02:10;97495.22;;;11.78;68.40
48216;BME280;34005;48.844;10.098;2023-02-18T01:04:37;97497.00;;;11.77;68.20
48216;BME280;34005;48.844;10.098;2023-02-18T01:07:05;97491.78;;;11.77;68.11
48216;BME280;34005;48.844;10.098;2023-02-18T01:09:33;97492.75;;;11.76;67.92
48216;BME280;34005;48.844;10.098;2023-02-18T01:12:00;97492.75;;;11.76;68.13
48216;BME280;34005;48.844;10.098;2023-02-18T01:14:28;97499.94;;;11.74;68.08
48216;BME280;34005;48.844;10.098;2023-02-18T01:16:57;97493.91;;;11.73;68.16
48216;BME280;34005;48.844;10.098;2023-02-18T01:19:25;97494.91;;;11.72;68.14
48216;BME280;34005;48.844;10.098;2023-02-18T01:21:52;97504.56;;;11.72;67.91
48216;BME280;34005;48.844;10.098;2023-02-18T01:24:20;97493.09;;;11.73;67.96
48216;BME280;34005;48.844;10.098;2023-02-18T01:26:47;97497.31;;;11.74;68.03
48216;BME280;34005;48.844;10.098;2023-02-18T01:29:15;97494.72;;;11.74;67.85
48216;BME280;34005;48.844;10.098;2023-02-18T01:31:42;97483.44;;;11.73;68.04
48216;BME280;34005;48.844;10.098;2023-02-18T01:34:11;97494.72;;;11.74;67.85
48216;BME280;34005;48.844;10.098;2023-02-18T01:36:40;97493.25;;;11.71;67.97
48216;BME280;34005;48.844;10.098;2023-02-18T01:39:07;97487.38;;;11.69;67.99
48216;BME280;34005;48.844;10.098;2023-02-18T01:41:35;97492.59;;;11.69;68.27
48216;BME280;34005;48.844;10.098;2023-02-18T01:44:14;97491.47;;;11.72;68.18
48216;BME280;34005;48.844;10.098;2023-02-18T01:46:41;97485.59;;;11.70;68.19
48216;BME280;34005;48.844;10.098;2023-02-18T01:49:13;97481.34;;;11.69;68.29
48216;BME280;34005;48.844;10.098;2023-02-18T01:51:44;97483.31;;;11.67;68.22
48216;BME280;34005;48.844;10.098;2023-02-18T01:54:16;97482.50;;;11.66;68.49
48216;BME280;34005;48.844;10.098;2023-02-18T01:56:47;97481.84;;;11.64;68.66
48216;BME280;34005;48.844;10.098;2023-02-18T01:59:17;97480.03;;;11.65;68.51
48216;BME280;34005;48.844;10.098;2023-02-18T02:01:47;97476.47;;;11.66;68.39
48216;BME280;34005;48.844;10.098;2023-02-18T02:04:16;97486.72;;;11.67;68.27
48216;BME280;34005;48.844;10.098;2023-02-18T02:06:44;97490.50;;;11.65;68.41
48216;BME280;34005;48.844;10.098;2023-02-18T02:09:15;97475.97;;;11.62;68.35
48216;BME280;34005;48.844;10.098;2023-02-18T02:12:07;97475.81;;;11.64;68.76
48216;BME280;34005;48.844;10.098;2023-02-18T02:14:52;97481.03;;;11.64;68.78
48216;BME280;34005;48.844;10.098;2023-02-18T02:17:29;97469.44;;;11.66;68.73
48216;BME280;34005;48.844;10.098;2023-02-18T02:20:25;97469.28;;;11.68;68.99
48216;BME280;34005;48.844;10.098;2023-02-18T02:26:24;97458.81;;;11.68;68.79
48216;BME280;34005;48.844;10.098;2023-02-18T02:32:31;97460.44;;;11.69;68.62
48216;BME280;34005;48.844;10.098;2023-02-18T02:35:04;97454.41;;;11.68;68.31
48216;BME280;34005;48.844;10.098;2023-02-18T02:37:38;97445.75;;;11.68;68.37
48216;BME280;34005;48.844;10.098;2023-02-18T02:40:15;97443.78;;;11.70;68.61
48216;BME280;34005;48.844;10.098;2023-02-18T02:42:54;97446.41;;;11.70;68.25
48216;BME280;34005;48.844;10.098;2023-02-18T02:45:31;97457.97;;;11.67;68.15
48216;BME280;34005;48.844;10.098;2023-02-18T02:48:10;97445.09;;;11.66;68.22
48216;BME280;34005;48.844;10.098;2023-02-18T02:50:46;97451.13;;;11.66;68.20
48216;BME280;34005;48.844;10.098;2023-02-18T02:53:20;97436.25;;;11.67;68.32
48216;BME280;34005;48.844;10.098;2023-02-18T02:55:49;97431.03;;;11.67;67.98
48216;BME280;34005;48.844;10.098;2023-02-18T02:58:18;97439.53;;;11.69;68.12
48216;BME280;34005;48.844;10.098;2023-02-18T03:00:55;97421.06;;;11.70;67.57
48216;BME280;34005;48.844;10.098;2023-02-18T03:03:41;97416.66;;;11.71;67.64
48216;BME280;34005;48.844;10.098;2023-02-18T03:06:23;97412.22;;;11.71;67.37
48216;BME280;34005;48.844;10.098;2023-02-18T03:08:59;97412.06;;;11.73;67.51
48216;BME280;34005;48.844;10.098;2023-02-18T03:11:40;97418.31;;;11.72;67.34
48216;BME280;34005;48.844;10.098;2023-02-18T03:14:12;97421.22;;;11.69;67.23
48216;BME280;34005;48.844;10.098;2023-02-18T03:16:47;97415.34;;;11.67;67.37
48216;BME280;34005;48.844;10.098;2023-02-18T03:19:21;97410.13;;;11.67;67.21
48216;BME280;34005;48.844;10.098;2023-02-18T03:21:55;97411.78;;;11.68;67.18
48216;BME280;34005;48.844;10.098;2023-02-18T03:24:26;97407.50;;;11.67;67.23
48216;BME280;34005;48.844;10.098;2023-02-18T03:26:59;97407.50;;;11.67;67.27
48216;BME280;34005;48.844;10.098;2023-02-18T03:29:31;97406.53;;;11.68;67.12
48216;BME280;34005;48.844;10.098;2023-02-18T03:32:02;97409.97;;;11.68;67.07
48216;BME280;34005;48.844;10.098;2023-02-18T03:34:33;97401.31;;;11.68;67.01
48216;BME280;34005;48.844;10.098;2023-02-18T03:37:04;97397.72;;;11.69;67.12
48216;BME280;34005;48.844;10.098;2023-02-18T03:39:36;97414.19;;;11.69;66.90
48216;BME280;34005;48.844;10.098;2023-02-18T03:42:04;97408.16;;;11.69;66.60
48216;BME280;34005;48.844;10.098;2023-02-18T03:44:32;97408.16;;;11.69;66.93
48216;BME280;34005;48.844;10.098;2023-02-18T03:47:00;97420.59;;;11.67;66.73
48216;BME280;34005;48.844;10.098;2023-02-18T03:49:28;97418.97;;;11.66;66.74
48216;BME280;34005;48.844;10.098;2023-02-18T03:51:55;97399.84;;;11.65;66.80
48216;BME280;34005;48.844;10.098;2023-02-18T03:54:24;97412.09;;;11.65;66.66
48216;BME280;34005;48.844;10.098;2023-02-18T03:56:51;97417.31;;;11.65;66.85
48216;BME280;34005;48.844;10.098;2023-02-18T03:59:19;97411.28;;;11.64;66.72
48216;BME280;34005;48.844;10.098;2023-02-18T04:01:46;97407.88;;;11.64;66.73
48216;BME280;34005;48.844;10.098;2023-02-18T04:04:14;97410.47;;;11.64;66.66
48216;BME280;34005;48.844;10.098;2023-02-18T04:06:42;97414.72;;;11.65;66.66
48216;BME280;34005;48.844;10.098;2023-02-18T04:09:09;97407.69;;;11.65;66.71
48216;BME280;34005;48.844;10.098;2023-02-18T04:11:39;97412.91;;;11.65;66.55
48216;BME280;34005;48.844;10.098;2023-02-18T04:14:07;97413.75;;;11.66;66.41
48216;BME280;34005;48.844;10.098;2023-02-18T04:16:35;97402.44;;;11.65;66.51
48216;BME280;34005;48.844;10.098;2023-02-18T04:19:02;97405.91;;;11.66;66.28
48216;BME280;34005;48.844;10.098;2023-02-18T04:21:30;97410.28;;;11.65;66.34
48216;BME280;34005;48.844;10.098;2023-02-18T04:23:57;97414.91;;;11.63;66.35
48216;BME280;34005;48.844;10.098;2023-02-18T04:26:26;97403.59;;;11.63;66.46
48216;BME280;34005;48.844;10.098;2023-02-18T04:28:55;97405.25;;;11.64;66.51
48216;BME280;34005;48.844;10.098;2023-02-18T04:31:22;97408.50;;;11.66;66.27
48216;BME280;34005;48.844;10.098;2023-02-18T04:33:50;97393.63;;;11.66;66.27
48216;BME280;34005;48.844;10.098;2023-02-18T04:36:17;97389.22;;;11.67;66.08
48216;BME280;34005;48.844;10.098;2023-02-18T04:38:45;97384.81;;;11.67;66.19
48216;BME280;34005;48.844;10.098;2023-02-18T04:41:12;97389.88;;;11.69;66.19
48216;BME280;34005;48.844;10.098;2023-02-18T04:43:40;97396.75;;;11.70;66.17
48216;BME280;34005;48.844;10.098;2023-02-18T04:46:09;97385.28;;;11.71;66.10
48216;BME280;34005;48.844;10.098;2023-02-18T04:48:37;97392.16;;;11.72;65.82
48216;BME280;34005;48.844;10.098;2023-02-18T04:51:05;97387.75;;;11.72;65.88
48216;BME280;34005;48.844;10.098;2023-02-18T04:53:32;97361.59;;;11.72;65.72
48216;BME280;34005;48.844;10.098;2023-02-18T04:56:00;97384.31;;;11.72;65.54
48216;BME280;34005;48.844;10.098;2023-02-18T04:58:28;97380.88;;;11.71;65.65
48216;BME280;34005;48.844;10.098;2023-02-18T05:00:58;97380.88;;;11.71;65.47
48216;BME280;34005;48.844;10.098;2023-02-18T05:03:27;97395.75;;;11.71;65.52
48216;BME280;34005;48.844;10.098;2023-02-18T05:05:55;97396.56;;;11.71;65.35
48216;BME280;34005;48.844;10.098;2023-02-18T05:08:23;97397.38;;;11.72;65.37
48216;BME280;34005;48.844;10.098;2023-02-18T05:10:50;97406.19;;;11.71;65.36
48216;BME280;34005;48.844;10.098;2023-02-18T05:13:18;97399.34;;;11.70;65.30
48216;BME280;34005;48.844;10.098;2023-02-18T05:15:48;97399.34;;;11.70;65.27
48216;BME280;34005;48.844;10.098;2023-02-18T05:18:15;97403.75;;;11.69;65.21
48216;BME280;34005;48.844;10.098;2023-02-18T05:20:44;97408.31;;;11.67;65.21
48216;BME280;34005;48.844;10.098;2023-02-18T05:23:12;97398.88;;;11.66;65.12
48216;BME280;34005;48.844;10.098;2023-02-18T05:25:40;97403.09;;;11.67;64.99
48216;BME280;34005;48.844;10.098;2023-02-18T05:28:07;97401.47;;;11.66;64.86
48216;BME280;34005;48.844;10.098;2023-02-18T05:30:35;97392.63;;;11.67;64.90
48216;BME280;34005;48.844;10.098;2023-02-18T05:33:02;97396.91;;;11.68;64.63
48216;BME280;34005;48.844;10.098;2023-02-18T05:35:30;97393.28;;;11.69;64.87
48216;BME280;34005;48.844;10.098;2023-02-18T05:37:59;97396.56;;;11.71;64.48
48216;BME280;34005;48.844;10.098;2023-02-18T05:40:26;97405.03;;;11.73;64.48
48216;BME280;34005;48.844;10.098;2023-02-18T05:42:54;97404.22;;;11.73;64.08
48216;BME280;34005;48.844;10.098;2023-02-18T05:45:22;97403.44;;;11.72;63.89
48216;BME280;34005;48.844;10.098;2023-02-18T05:47:49;97399.00;;;11.73;63.99
48216;BME280;34005;48.844;10.098;2023-02-18T05:50:17;97394.78;;;11.72;63.95
48216;BME280;34005;48.844;10.098;2023-02-18T05:52:44;97397.38;;;11.72;63.93
48216;BME280;34005;48.844;10.098;2023-02-18T05:55:13;97401.78;;;11.71;63.81
48216;BME280;34005;48.844;10.098;2023-02-18T05:57:41;97384.47;;;11.70;63.87
48216;BME280;34005;48.844;10.098;2023-02-18T06:00:09;97392.16;;;11.72;63.89
48216;BME280;34005;48.844;10.098;2023-02-18T06:02:37;97385.28;;;11.71;63.82
48216;BME280;34005;48.844;10.098;2023-02-18T06:05:05;97382.69;;;11.71;63.87
48216;BME280;34005;48.844;10.098;2023-02-18T06:07:33;97386.09;;;11.71;63.79
48216;BME280;34005;48.844;10.098;2023-02-18T06:10:01;97394.78;;;11.72;63.61
48216;BME280;34005;48.844;10.098;2023-02-18T06:12:30;97385.94;;;11.73;63.63
48216;BME280;34005;48.844;10.098;2023-02-18T06:14:57;97391.31;;;11.71;63.77
48216;BME280;34005;48.844;10.098;2023-02-18T06:17:25;97393.13;;;11.71;63.72
48216;BME280;34005;48.844;10.098;2023-02-18T06:19:52;97394.13;;;11.70;63.58
48216;BME280;34005;48.844;10.098;2023-02-18T06:22:20;97403.75;;;11.69;63.87
48216;BME280;34005;48.844;10.098;2023-02-18T06:24:48;97407.34;;;11.68;63.73
48216;BME280;34005;48.844;10.098;2023-02-18T06:27:15;97405.38;;;11.70;63.87
48216;BME280;34005;48.844;10.098;2023-02-18T06:29:44;97412.41;;;11.70;64.10
48216;BME280;34005;48.844;10.098;2023-02-18T06:32:12;97410.47;;;11.72;64.03
48216;BME280;34005;48.844;10.098;2023-02-18T06:34:40;97412.22;;;11.71;63.95
48216;BME280;34005;48.844;10.098;2023-02-18T06:37:07;97410.78;;;11.69;64.09
48216;BME280;34005;48.844;10.098;2023-02-18T06:39:35;97408.16;;;11.69;64.20
48216;BME280;34005;48.844;10.098;2023-02-18T06:42:02;97402.94;;;11.69;64.36
48216;BME280;34005;48.844;10.098;2023-02-18T06:44:30;97407.19;;;11.70;64.39
48216;BME280;34005;48.844;10.098;2023-02-18T06:46:59;97410.63;;;11.70;64.39
48216;BME280;34005;48.844;10.098;2023-02-18T06:49:26;97409.63;;;11.71;64.75
48216;BME280;34005;48.844;10.098;2023-02-18T06:51:55;97407.19;;;11.70;64.67
48216;BME280;34005;48.844;10.098;2023-02-18T06:54:23;97411.44;;;11.71;64.76
48216;BME280;34005;48.844;10.098;2023-02-18T06:56:51;97415.03;;;11.70;64.69
48216;BME280;34005;48.844;10.098;2023-02-18T06:59:19;97401.97;;;11.70;64.75
48216;BME280;34005;48.844;10.098;2023-02-18T07:01:46;97400.16;;;11.70;64.96
48216;BME280;34005;48.844;10.098;2023-02-18T07:04:15;97395.75;;;11.71;64.87
48216;BME280;34005;48.844;10.098;2023-02-18T07:06:43;97390.50;;;11.71;65.18
48216;BME280;34005;48.844;10.098;2023-02-18T07:09:10;97390.50;;;11.71;65.02
48216;BME280;34005;48.844;10.098;2023-02-18T07:11:38;97382.84;;;11.69;65.08
48216;BME280;34005;48.844;10.098;2023-02-18T07:14:06;97388.91;;;11.70;65.18
48216;BME280;34005;48.844;10.098;2023-02-18T07:16:33;97395.75;;;11.71;65.11
48216;BME280;34005;48.844;10.098;2023-02-18T07:19:01;97390.50;;;11.71;64.84
48216;BME280;34005;48.844;10.098;2023-02-18T07:21:30;97375.63;;;11.71;65.04
48216;BME280;34005;48.844;10.098;2023-02-18T07:23:58;97370.41;;;11.71;64.99
48216;BME280;34005;48.844;10.098;2023-02-18T07:26:25;97367.63;;;11.73;64.91
48216;BME280;34005;48.844;10.098;2023-02-18T07:28:53;97382.31;;;11.74;65.16
48216;BME280;34005;48.844;10.098;2023-02-18T07:31:20;97372.06;;;11.72;65.01
48216;BME280;34005;48.844;10.098;2023-02-18T07:33:48;97371.56;;;11.69;65.64
48216;BME280;34005;48.844;10.098;2023-02-18T07:36:15;97373.38;;;11.68;65.29
48216;BME280;34005;48.844;10.098;2023-02-18T07:38:44;97365.53;;;11.68;65.35
48216;BME280;34005;48.844;10.098;2023-02-18T07:41:18;97355.91;;;11.69;65.36
48216;BME280;34005;48.844;10.098;2023-02-18T07:43:47;97357.53;;;11.70;65.32
48216;BME280;34005;48.844;10.098;2023-02-18T07:46:15;97367.81;;;11.71;65.27
48216;BME280;34005;48.844;10.098;2023-02-18T07:48:42;97354.72;;;11.71;64.84
48216;BME280;34005;48.844;10.098;2023-02-18T07:51:11;97364.03;;;11.74;64.97
48216;BME280;34005;48.844;10.098;2023-02-18T07:53:39;97361.41;;;11.74;64.76
48216;BME280;34005;48.844;10.098;2023-02-18T07:56:08;97357.84;;;11.75;64.91
48216;BME280;34005;48.844;10.098;2023-02-18T07:58:37;97346.38;;;11.76;64.97
48216;BME280;34005;48.844;10.098;2023-02-18T08:01:06;97349.84;;;11.77;64.89
48216;BME280;34005;48.844;10.098;2023-02-18T08:03:34;97350.78;;;11.75;64.92
48216;BME280;34005;48.844;10.098;2023-02-18T08:06:03;97337.72;;;11.75;64.94
48216;BME280;34005;48.844;10.098;2023-02-18T08:08:32;97348.03;;;11.77;64.91
48216;BME280;34005;48.844;10.098;2023-02-18T08:11:03;97346.06;;;11.79;64.86
48216;BME280;34005;48.844;10.098;2023-02-18T08:13:45;97346.06;;;11.79;64.58
48216;BME280;34005;48.844;10.098;2023-02-18T08:16:13;97344.09;;;11.81;64.73
48216;BME280;34005;48.844;10.098;2023-02-18T08:18:41;97347.34;;;11.83;64.64
48216;BME280;34005;48.844;10.098;2023-02-18T08:21:09;97339.16;;;11.86;64.47
48216;BME280;34005;48.844;10.098;2023-02-18T08:23:37;97331.31;;;11.86;64.60
48216;BME280;34005;48.844;10.098;2023-02-18T08:26:05;97335.41;;;11.89;64.48
48216;BME280;34005;48.844;10.098;2023-02-18T08:28:33;97335.41;;;11.89;64.56
48216;BME280;34005;48.844;10.098;2023-02-18T08:31:02;97340.63;;;11.89;64.87
48216;BME280;34005;48.844;10.098;2023-02-18T08:33:30;97340.47;;;11.90;64.64
48216;BME280;34005;48.844;10.098;2023-02-18T08:35:59;97323.78;;;11.91;64.80
48216;BME280;34005;48.844;10.098;2023-02-18T08:38:27;97325.25;;;11.94;64.83
48216;BME280;34005;48.844;10.098;2023-02-18T08:41:00;97325.91;;;11.96;64.76
48216;BME280;34005;48.844;10.098;2023-02-18T08:43:28;97309.88;;;11.99;64.60
48216;BME280;34005;48.844;10.098;2023-02-18T08:45:56;97319.97;;;12.02;64.34
48216;BME280;34005;48.844;10.098;2023-02-18T08:48:27;97338.91;;;12.04;64.06
48216;BME280;34005;48.844;10.098;2023-02-18T08:50:55;97311.59;;;12.07;63.79
48216;BME280;34005;48.844;10.098;2023-02-18T08:53:23;97318.47;;;12.08;63.83
48216;BME280;34005;48.844;10.098;2023-02-18T08:55:51;97321.56;;;12.11;64.03
48216;BME280;34005;48.844;10.098;2023-02-18T08:58:18;97303.25;;;12.11;63.80
48216;BME280;34005;48.844;10.098;2023-02-18T09:00:46;97308.13;;;12.14;63.93
48216;BME280;34005;48.844;10.098;2023-02-18T09:03:14;97308.78;;;12.16;63.35
48216;BME280;34005;48.844;10.098;2023-02-18T09:05:43;97318.72;;;12.21;62.97
48216;BME280;34005;48.844;10.098;2023-02-18T09:08:10;97318.34;;;12.24;63.09
48216;BME280;34005;48.844;10.098;2023-02-18T09:10:38;97314.22;;;12.30;63.34
48216;BME280;34005;48.844;10.098;2023-02-18T09:13:06;97315.34;;;12.35;63.03
48216;BME280;34005;48.844;10.098;2023-02-18T09:15:33;97323.47;;;12.41;62.62
48216;BME280;34005;48.844;10.098;2023-02-18T09:18:01;97323.75;;;12.46;62.65
48216;BME280;34005;48.844;10.098;2023-02-18T09:20:28;97308.69;;;12.48;62.69
48216;BME280;34005;48.844;10.098;2023-02-18T09:22:57;97295.06;;;12.52;62.73
48216;BME280;34005;48.844;10.098;2023-02-18T09:25:26;97301.41;;;12.58;62.55
48216;BME280;34005;48.844;10.098;2023-02-18T09:27:53;97301.88;;;12.62;62.10
48216;BME280;34005;48.844;10.098;2023-02-18T09:30:21;97315.41;;;12.65;61.84
48216;BME280;34005;48.844;10.098;2023-02-18T09:32:49;97309.38;;;12.65;61.77
48216;BME280;34005;48.844;10.098;2023-02-18T09:35:16;97306.59;;;12.66;61.87
48216;BME280;34005;48.844;10.098;2023-02-18T09:37:44;97297.72;;;12.67;61.48
48216;BME280;34005;48.844;10.098;2023-02-18T09:40:23;97294.13;;;12.68;61.61
48216;BME280;34005;48.844;10.098;2023-02-18T09:42:54;97295.75;;;12.69;61.81
48216;BME280;34005;48.844;10.098;2023-02-18T09:45:23;97293.41;;;12.74;61.84
48216;BME280;34005;48.844;10.098;2023-02-18T09:47:52;97294.66;;;12.78;61.75
48216;BME280;34005;48.844;10.098;2023-02-18T09:50:22;97289.09;;;12.82;61.35
48216;BME280;34005;48.844;10.098;2023-02-18T09:52:51;97284.66;;;12.82;61.30
48216;BME280;34005;48.844;10.098;2023-02-18T09:55:23;97272.84;;;12.86;61.20
48216;BME280;34005;48.844;10.098;2023-02-18T09:57:53;97269.06;;;12.89;61.19
48216;BME280;34005;48.844;10.098;2023-02-18T10:00:26;97267.88;;;12.91;60.86
48216;BME280;34005;48.844;10.098;2023-02-18T10:02:57;97260.66;;;12.93;60.81
48216;BME280;34005;48.844;10.098;2023-02-18T10:05:27;97271.75;;;12.95;60.60
48216;BME280;34005;48.844;10.098;2023-02-18T10:07:59;97273.56;;;12.95;60.35
48216;BME280;34005;48.844;10.098;2023-02-18T10:10:35;97270.97;;;12.95;60.24
48216;BME280;34005;48.844;10.098;2023-02-18T10:13:08;97273.38;;;12.96;60.66
48216;BME280;34005;48.844;10.098;2023-02-18T10:15:38;97266.78;;;13.01;60.59
48216;BME280;34005;48.844;10.098;2023-02-18T10:18:18;97274.09;;;13.05;60.25
48216;BME280;34005;48.844;10.098;2023-02-18T10:20:49;97280.81;;;13.08;59.77
48216;BME280;34005;48.844;10.098;2023-02-18T10:23:19;97279.81;;;13.09;59.49
48216;BME280;34005;48.844;10.098;2023-02-18T10:25:49;97287.03;;;13.07;59.47
48216;BME280;34005;48.844;10.098;2023-02-18T10:28:18;97284.56;;;13.05;59.47
48216;BME280;34005;48.844;10.098;2023-02-18T10:30:53;97281.63;;;13.08;60.07
48216;BME280;34005;48.844;10.098;2023-02-18T10:33:33;97293.25;;;13.20;59.53
48216;BME280;34005;48.844;10.098;2023-02-18T10:36:11;97279.13;;;13.30;59.15
48216;BME280;34005;48.844;10.098;2023-02-18T10:38:52;97276.56;;;13.36;58.68
48216;BME280;34005;48.844;10.098;2023-02-18T10:41:33;97275.84;;;13.43;58.76
48216;BME280;34005;48.844;10.098;2023-02-18T10:44:11;97263.63;;;13.50;58.30
48216;BME280;34005;48.844;10.098;2023-02-18T10:46:45;97273.47;;;13.63;58.30
48216;BME280;34005;48.844;10.098;2023-02-18T10:49:29;97260.84;;;13.73;58.17
48216;BME280;34005;48.844;10.098;2023-02-18T10:52:02;97275.50;;;13.82;58.38
48216;BME280;34005;48.844;10.098;2023-02-18T10:54:48;97267.94;;;13.94;57.93
48216;BME280;34005;48.844;10.098;2023-02-18T10:57:19;97279.88;;;13.96;57.73
48216;BME280;34005;48.844;10.098;2023-02-18T10:59:58;97265.75;;;13.97;57.50
48216;BME280;34005;48.844;10.098;2023-02-18T11:02:29;97269.53;;;13.95;57.59
48216;BME280;34005;48.844;10.098;2023-02-18T11:04:59;97293.72;;;13.90;57.76
48216;BME280;34005;48.844;10.098;2023-02-18T11:07:33;97268.25;;;13.84;57.62
48216;BME280;34005;48.844;10.098;2023-02-18T11:10:12;97271.78;;;13.76;57.63
48216;BME280;34005;48.844;10.098;2023-02-18T11:12:45;97264.88;;;13.69;58.04
48216;BME280;34005;48.844;10.098;2023-02-18T11:15:19;97261.97;;;13.64;58.24
48216;BME280;34005;48.844;10.098;2023-02-18T11:17:49;97262.34;;;13.60;58.55
48216;BME280;34005;48.844;10.098;2023-02-18T11:20:24;97245.28;;;13.50;58.80
48216;BME280;34005;48.844;10.098;2023-02-18T11:22:56;97236.78;;;13.48;59.25
48216;BME280;34005;48.844;10.098;2023-02-18T11:25:26;97229.72;;;13.48;59.29
48216;BME280;34005;48.844;10.098;2023-02-18T11:28:01;97224.66;;;13.47;59.02
48216;BME280;34005;48.844;10.098;2023-02-18T11:30:31;97214.19;;;13.47;59.19
48216;BME280;34005;48.844;10.098;2023-02-18T11:33:03;97205.78;;;13.51;58.99
48216;BME280;34005;48.844;10.098;2023-02-18T11:35:34;97208.09;;;13.61;59.09
48216;BME280;34005;48.844;10.098;2023-02-18T11:38:21;97209.03;;;13.75;58.80
48216;BME280;34005;48.844;10.098;2023-02-18T11:40:54;97210.41;;;13.92;58.16
48216;BME280;34005;48.844;10.098;2023-02-18T11:43:28;97199.00;;;14.00;57.99
48216;BME280;34005;48.844;10.098;2023-02-18T11:46:08;97191.94;;;14.00;57.61
48216;BME280;34005;48.844;10.098;2023-02-18T11:48:36;97198.19;;;13.99;57.75
48216;BME280;34005;48.844;10.098;2023-02-18T11:51:04;97196.94;;;13.95;57.40
48216;BME280;34005;48.844;10.098;2023-02-18T11:53:34;97203.91;;;13.88;57.56
48216;BME280;34005;48.844;10.098;2023-02-18T11:56:05;97201.69;;;13.85;57.56
48216;BME280;34005;48.844;10.098;2023-02-18T11:58:38;97187.13;;;13.83;57.52
48216;BME280;34005;48.844;10.098;2023-02-18T12:01:13;97185.50;;;13.81;57.06
48216;BME280;34005;48.844;10.098;2023-02-18T12:03:46;97178.41;;;13.75;56.79
48216;BME280;34005;48.844;10.098;2023-02-18T12:06:21;97195.06;;;13.68;57.50
48216;BME280;34005;48.844;10.098;2023-02-18T12:08:51;97181.31;;;13.66;57.20
48216;BME280;34005;48.844;10.098;2023-02-18T12:11:26;97185.31;;;13.62;57.32
48216;BME280;34005;48.844;10.098;2023-02-18T12:13:57;97191.28;;;13.55;57.54
48216;BME280;34005;48.844;10.098;2023-02-18T12:16:33;97182.81;;;13.53;57.37
48216;BME280;34005;48.844;10.098;2023-02-18T12:19:22;97167.69;;;13.55;57.42
48216;BME280;34005;48.844;10.098;2023-02-18T12:21:59;97174.75;;;13.55;57.33
48216;BME280;34005;48.844;10.098;2023-02-18T12:24:38;97175.56;;;13.55;57.72
48216;BME280;34005;48.844;10.098;2023-02-18T12:27:15;97166.72;;;13.56;57.46
48216;BME280;34005;48.844;10.098;2023-02-18T12:30:17;97169.59;;;13.62;57.14
48216;BME280;34005;48.844;10.098;2023-02-18T12:32:52;97183.94;;;13.66;56.81
48216;BME280;34005;48.844;10.098;2023-02-18T12:35:42;97160.97;;;13.68;56.42
48216;BME280;34005;48.844;10.098;2023-02-18T12:41:31;97165.09;;;13.55;55.99
48216;BME280;34005;48.844;10.098;2023-02-18T12:44:11;97158.22;;;13.54;56.16
48216;BME280;34005;48.844;10.098;2023-02-18T12:46:58;97152.81;;;13.56;56.63
48216;BME280;34005;48.844;10.098;2023-02-18T12:49:48;97151.06;;;13.63;56.21
48216;BME280;34005;48.844;10.098;2023-02-18T12:52:34;97160.00;;;13.69;56.11
48216;BME280;34005;48.844;10.098;2023-02-18T12:55:42;97154.38;;;13.72;55.32
48216;BME280;34005;48.844;10.098;2023-02-18T12:58:22;97160.88;;;13.76;55.44
48216;BME280;34005;48.844;10.098;2023-02-18T13:01:06;97149.69;;;13.89;55.41
48216;BME280;34005;48.844;10.098;2023-02-18T13:04:02;97140.09;;;14.02;54.47
48216;BME280;34005;48.844;10.098;2023-02-18T13:09:39;97151.13;;;14.19;54.21
48216;BME280;34005;48.844;10.098;2023-02-18T13:12:14;97144.69;;;14.22;54.54
48216;BME280;34005;48.844;10.098;2023-02-18T13:14:49;97153.19;;;14.24;54.18
48216;BME280;34005;48.844;10.098;2023-02-18T13:17:23;97151.50;;;14.16;54.36
48216;BME280;34005;48.844;10.098;2023-02-18T13:19:55;97134.91;;;14.09;54.30
48216;BME280;34005;48.844;10.098;2023-02-18T13:22:26;97144.16;;;14.05;54.53